Terminal Aerodrome Forecast
Issued by NWS Charleston, WV

Current Version | Previous Version | Text Only | Print | Product List | Glossary Off
Versions: 1 2 3 4 5 6 7 8 9 10 11 12 13 14 15 16 17 18 19 20 21 22 23 24 25

000
FTUS41 KRLX 130200 AAA
TAFHTS
TAF AMD
KHTS 130225Z 1302/1324 04004KT P6SM SCT030 OVC035
      TEMPO 1302/1304 OVC025
     FM130400 VRB03KT P6SM OVC025
     FM130800 33004KT 6SM BR OVC025
     FM131400 31005KT P6SM OVC015
     FM131600 32006KT P6SM OVC025
     FM131900 33006KT P6SM BKN035=

USA.gov is the U.S. government's official web portal to all federal, state and local government web resources and services.